首页
METAR-TAF:

METAR-TAF

机场 :

羅曼·莫圖國際機場

科羅爾, 巴伯尔道布岛, 帛琉

纬度: 07-22N, 经度: 134-32E, 海拔: 54米

当前天气观测

该预报发布于35分钟前的22:50 UTC
风速9节,风向东北,有时为19节阵风
温度 27°C
湿度 89%
气压 1010 hPa
能見度: 20.9公里
少量云层高于800英尺
多云层高于1500英尺, 积雨云.
多云层高于11000英尺
阴天层高于28000英尺

METAR: PTRO 262250Z 05009G19KT 13SM FEW008 BKN015CB BKN110 OVC280 27/25 A2982 RMK CB ALQDS

时间: 08:25 (23:25 UTC)

预报

该预报发布于5小时和51分钟前的17:34 UTC
预报有效从26日的 18点(UTC)到 27日的 18点(UTC)
风速10节,风向东转东北
能見度: 10公里
散云层高于1500英尺
多云层高于6000英尺
多云层高于12000英尺
附近有阵雨
短暂存在
从 26日的 18点(UTC)到 26日的 22点(UTC)
风速11节,风向东转东北,有时为20节阵风
能見度: 8.0公里
多云层高于1500英尺
小阵雨
从 26日的 2200点(UTC)
风速11节,风向东转东北
能見度: 10公里
散云层高于1500英尺
多云层高于5000英尺
多云层高于10000英尺
附近有阵雨
短暂存在
从 26日的 22点(UTC)到 27日的 02点(UTC)
风速11节,风向东转东北,有时为20节阵风
能見度: 8.0公里
多云层高于1500英尺
小阵雨
从 27日的 0200点(UTC)
风速11节,风向东转东北,有时为20节阵风
能見度: 10公里
散云层高于1500英尺
多云层高于5000英尺
多云层高于10000英尺
附近有阵雨
短暂存在
从 27日的 02点(UTC)到 27日的 06点(UTC)
多云层高于1500英尺
小阵雨

TAF: PTRO 261734Z 2618/2718 07010KT P6SM VCSH SCT015 BKN060 BKN120 TEMPO 2618/2622 07011G20KT 5SM -SHRA BKN015 FM262200 06011KT P6SM VCSH SCT015 BKN050 BKN100 TEMPO 2622/2702 06011G20KT 5SM -SHRA BKN015 FM270200 06011G20KT P6SM VCSH SCT015 BKN050 BKN100 TEMPO 2702/2706 -SHRA BKN015

超过4000个机场的气象观测和天气预报(METAR&TAF报告)。

可查询的气象台以黄色和红色小点在地图上表示。

将鼠标移到小点上方,可查看气象台名称。

然后点击查看天气观测和预报。

如需切换地图:点击带黑十字的绿色按钮放大地图;点击带横线的绿色按钮缩小地图;或者点击绿色箭头查看邻近地区的地图。


METAR-TAF: